Time;durP1;ratioP1;P1;durP2;ratioP2;P2;SDS_P1;SDS_P2;PMS_P1;PMS_P2;Temp;Humidity;BMP_temperature;BMP_pressure;BME280_temperature;BME280_humidity;BME280_pressure;Samples;Min_cycle;Max_cycle;Signal;HPM_P1;HPM_P2
2022/10/03 00:00:11;;;;;;;2.87;1.83;;;;;;;11.58;100.00;97016.44;4971639;28;105723;-61
2022/10/03 00:03:30;;;;;;;1.53;1.40;;;;;;;11.52;100.00;97025.38;4972831;28;101936;-61
2022/10/03 00:06:15;;;;;;;1.40;1.30;;;;;;;11.50;100.00;97027.50;5030053;28;105533;-61
2022/10/03 00:09:15;;;;;;;1.73;1.50;;;;;;;11.47;100.00;97023.44;5032059;28;105291;-61
2022/10/03 00:11:56;;;;;;;1.40;1.30;;;;;;;11.44;100.00;97033.78;5030022;28;104263;-61
2022/10/03 00:14:32;;;;;;;2.00;1.40;;;;;;;11.42;100.00;97036.69;5029361;28;105771;-61
2022/10/03 00:17:09;;;;;;;1.30;1.30;;;;;;;11.39;100.00;97036.34;5030024;28;101875;-61
2022/10/03 00:19:46;;;;;;;1.90;1.80;;;;;;;11.39;100.00;97026.50;5029757;28;103985;-61
2022/10/03 00:22:22;;;;;;;2.77;1.40;;;;;;;11.35;100.00;97035.19;5029446;28;105390;-61
2022/10/03 00:25:02;;;;;;;1.87;1.77;;;;;;;11.41;100.00;97040.38;5029909;28;102082;-61
2022/10/03 00:27:36;;;;;;;2.43;1.70;;;;;;;11.40;100.00;97033.44;5029843;28;104969;-61
2022/10/03 00:30:17;;;;;;;2.37;1.60;;;;;;;11.35;100.00;97032.53;5029133;28;105330;-61
2022/10/03 00:36:02;;;;;;;2.87;2.07;;;;;;;11.39;100.00;97026.50;5029198;28;105631;-61
2022/10/03 00:39:11;;;;;;;3.30;2.03;;;;;;;11.41;100.00;97031.59;5029799;28;101892;-61
2022/10/03 00:42:06;;;;;;;2.27;1.70;;;;;;;11.43;100.00;97032.13;4971990;28;105041;-61
2022/10/03 00:45:14;;;;;;;1.43;1.43;;;;;;;11.41;100.00;97028.91;4964409;28;105534;-61
2022/10/03 00:48:31;;;;;;;2.10;1.77;;;;;;;11.41;100.00;97039.56;4926590;28;101937;-61
2022/10/03 00:51:13;;;;;;;1.60;1.50;;;;;;;11.39;100.00;97033.69;4935847;28;103944;-61
2022/10/03 00:53:54;;;;;;;1.63;1.53;;;;;;;11.43;100.00;97037.47;5004530;28;105492;-61
2022/10/03 00:56:47;;;;;;;2.53;1.63;;;;;;;11.44;100.00;97039.09;4971631;28;101869;-61
2022/10/03 00:59:31;;;;;;;2.13;1.93;;;;;;;11.41;100.00;97053.72;4974439;28;105439;-61
2022/10/03 01:01:59;;;;;;;2.13;2.03;;;;;;;11.45;100.00;97056.69;4971037;28;102042;-61
2022/10/03 01:04:50;;;;;;;2.43;2.23;;;;;;;11.45;100.00;97049.50;4971549;28;105715;-61
2022/10/03 01:07:37;;;;;;;2.43;2.27;;;;;;;11.42;100.00;97046.50;4971058;28;105777;-61
2022/10/03 01:10:15;;;;;;;3.23;2.60;;;;;;;11.47;100.00;97043.94;5004987;28;101876;-61
2022/10/03 01:13:02;;;;;;;2.50;2.30;;;;;;;11.42;100.00;97044.66;5004339;28;104012;-61
2022/10/03 01:15:43;;;;;;;2.83;2.40;;;;;;;11.47;100.00;97049.25;5028208;28;105485;-61
2022/10/03 01:18:25;;;;;;;2.37;2.17;;;;;;;11.52;100.00;97052.03;5028995;28;101902;-61
2022/10/03 01:21:03;;;;;;;2.60;2.37;;;;;;;11.52;100.00;97057.34;5028941;28;105456;-61
2022/10/03 01:24:13;;;;;;;2.07;1.90;;;;;;;11.52;100.00;97055.50;5031508;28;105197;-61
2022/10/03 01:26:52;;;;;;;3.20;2.30;;;;;;;11.52;100.00;97060.84;5028851;28;104722;-61
2022/10/03 01:32:16;;;;;;;2.70;2.50;;;;;;;11.55;100.00;97056.88;5028274;28;101884;-61
2022/10/03 01:34:51;;;;;;;2.60;2.40;;;;;;;11.53;100.00;97059.78;5028684;28;103476;-61
2022/10/03 01:37:28;;;;;;;2.47;2.27;;;;;;;11.49;100.00;97061.28;5029499;28;103185;-61
2022/10/03 01:40:00;;;;;;;2.67;2.47;;;;;;;11.51;100.00;97067.19;5030411;27;101799;-61
2022/10/03 01:42:40;;;;;;;2.77;2.57;;;;;;;11.49;100.00;97063.13;5030243;28;102926;-61
2022/10/03 01:48:07;;;;;;;2.93;2.43;;;;;;;11.51;100.00;97063.72;5051334;27;101520;-61
2022/10/03 01:50:40;;;;;;;2.80;2.60;;;;;;;11.50;100.00;97070.91;5046739;27;103097;-61
2022/10/03 01:53:20;;;;;;;2.67;2.40;;;;;;;11.49;100.00;97068.47;5047239;27;101986;-61
2022/10/03 01:55:59;;;;;;;2.93;2.73;;;;;;;11.42;100.00;97068.63;5047526;27;102690;-61
2022/10/03 01:58:33;;;;;;;3.17;2.87;;;;;;;11.48;100.00;97077.50;5046768;27;102692;-61
2022/10/03 02:01:07;;;;;;;4.83;3.03;;;;;;;11.50;100.00;97083.44;5047167;27;101676;-61
2022/10/03 02:03:45;;;;;;;5.40;3.53;;;;;;;11.43;100.00;97085.41;5047212;27;102518;-61
2022/10/03 02:06:21;;;;;;;3.73;3.40;;;;;;;11.50;100.00;97089.53;5046381;27;102694;-61
2022/10/03 02:08:55;;;;;;;5.37;4.37;;;;;;;11.41;100.00;97095.50;5049149;27;102112;-61
2022/10/03 02:11:30;;;;;;;4.53;4.07;;;;;;;11.48;100.00;97098.81;5046535;27;102631;-61
2022/10/03 02:14:07;;;;;;;6.93;4.43;;;;;;;11.42;100.00;97099.78;5045272;27;102115;-61
2022/10/03 02:16:42;;;;;;;4.77;4.37;;;;;;;11.44;100.00;97105.69;5045287;27;105304;-61
2022/10/03 02:19:19;;;;;;;5.23;4.73;;;;;;;11.39;100.00;97102.94;5044799;27;103711;-61
2022/10/03 02:21:49;;;;;;;4.87;4.47;;;;;;;11.32;100.00;97104.91;5046791;27;101659;-61
2022/10/03 02:24:38;;;;;;;5.93;5.17;;;;;;;11.34;100.00;97113.47;5045353;27;103778;-61
2022/10/03 02:27:21;;;;;;;6.60;5.90;;;;;;;11.25;100.00;97123.69;5044624;27;105735;-61
2022/10/03 02:30:12;;;;;;;8.20;5.43;;;;;;;11.17;100.00;97118.72;5046658;27;101922;-61
2022/10/03 02:33:22;;;;;;;8.17;6.13;;;;;;;11.15;100.00;97125.34;5048148;27;105032;-61
2022/10/03 02:36:19;;;;;;;7.97;7.17;;;;;;;11.09;100.00;97131.59;5045397;27;101834;-61
2022/10/03 02:39:15;;;;;;;7.47;6.70;;;;;;;11.11;100.00;97129.50;5036268;27;105532;-61
2022/10/03 02:42:26;;;;;;;7.70;6.93;;;;;;;11.08;100.00;97135.31;5044444;27;105703;-61
2022/10/03 02:45:20;;;;;;;7.33;6.63;;;;;;;11.12;100.00;97131.13;5045026;27;101890;-61
2022/10/03 02:48:21;;;;;;;9.60;7.63;;;;;;;11.07;100.00;97133.69;5044484;27;104962;-61
2022/10/03 02:51:29;;;;;;;9.83;8.00;;;;;;;11.05;100.00;97131.25;5031099;27;106246;-61
2022/10/03 02:54:22;;;;;;;10.33;8.97;;;;;;;10.99;100.00;97134.03;4994948;27;101990;-61
2022/10/03 02:57:37;;;;;;;10.00;7.77;;;;;;;10.90;100.00;97140.78;5044344;27;105082;-61
2022/10/03 03:00:09;;;;;;;9.40;8.43;;;;;;;10.87;100.00;97135.91;5034059;28;105077;-61
2022/10/03 03:03:30;;;;;;;11.23;8.67;;;;;;;10.81;100.00;97145.66;5031306;28;105169;-61
2022/10/03 03:06:38;;;;;;;10.67;8.63;;;;;;;10.73;100.00;97147.84;4953276;28;105314;-61
2022/10/03 03:09:39;;;;;;;10.13;8.90;;;;;;;10.72;100.00;97148.88;4970332;28;102046;-61
2022/10/03 03:12:39;;;;;;;10.27;8.43;;;;;;;10.64;100.00;97150.03;4953286;28;104771;-61
2022/10/03 03:15:43;;;;;;;11.20;8.97;;;;;;;10.61;100.00;97155.84;4947443;28;105370;-61
2022/10/03 03:18:21;;;;;;;10.40;9.13;;;;;;;10.58;100.00;97158.16;4953448;28;101916;-61
2022/10/03 03:21:03;;;;;;;10.20;9.20;;;;;;;10.63;100.00;97166.25;4953773;28;103756;-61
2022/10/03 03:23:46;;;;;;;9.67;8.73;;;;;;;10.63;100.00;97158.28;4969335;28;102652;-61
2022/10/03 03:26:34;;;;;;;10.57;8.73;;;;;;;10.63;100.00;97169.72;4956816;28;101837;-61
2022/10/03 03:29:13;;;;;;;10.37;8.60;;;;;;;10.67;100.00;97165.56;4952998;28;105379;-61
2022/10/03 03:31:53;;;;;;;13.17;9.70;;;;;;;10.73;100.00;97175.25;4953343;28;101959;-61
2022/10/03 03:34:28;;;;;;;11.33;8.37;;;;;;;10.69;100.00;97173.31;4953501;28;105188;-61
2022/10/03 03:37:03;;;;;;;10.17;8.03;;;;;;;10.63;100.00;97175.03;4989679;28;105595;-61
2022/10/03 03:39:46;;;;;;;11.30;8.07;;;;;;;10.60;100.00;97174.69;5030581;28;101809;-61
2022/10/03 03:42:33;;;;;;;8.80;7.90;;;;;;;10.61;100.00;97178.97;5032181;28;102506;-61
2022/10/03 03:45:11;;;;;;;9.13;7.80;;;;;;;10.61;100.00;97176.31;5030037;28;105393;-61
2022/10/03 03:48:07;;;;;;;10.80;7.27;;;;;;;10.64;100.00;97186.50;5029698;28;101994;-61
2022/10/03 03:50:47;;;;;;;8.83;7.90;;;;;;;10.65;100.00;97185.44;5033209;28;103760;-61
2022/10/03 03:53:54;;;;;;;10.30;8.00;;;;;;;10.62;100.00;97188.56;5030350;28;101900;-61
2022/10/03 03:56:36;;;;;;;10.27;8.20;;;;;;;10.65;100.00;97196.09;4983236;28;105057;-61
2022/10/03 03:59:18;;;;;;;12.70;8.10;;;;;;;10.64;100.00;97197.94;5031239;28;102657;-61
2022/10/03 04:02:06;;;;;;;13.07;8.90;;;;;;;10.68;100.00;97185.00;5031864;27;101759;-61
2022/10/03 04:04:46;;;;;;;11.03;8.10;;;;;;;10.66;100.00;97190.53;5031512;28;102524;-61
2022/10/03 04:07:27;;;;;;;9.47;8.40;;;;;;;10.67;100.00;97191.34;5029583;28;105402;-61
2022/10/03 04:10:31;;;;;;;8.63;7.53;;;;;;;10.65;100.00;97196.09;5030563;27;101668;-61
2022/10/03 04:13:24;;;;;;;11.63;7.43;;;;;;;10.64;100.00;97194.47;5029299;28;102905;-61
2022/10/03 04:16:05;;;;;;;8.03;6.93;;;;;;;10.68;100.00;97190.31;5033614;27;101722;-61
2022/10/03 04:18:58;;;;;;;10.23;7.30;;;;;;;10.67;100.00;97191.34;5031786;28;102853;-61
2022/10/03 04:22:03;;;;;;;11.23;7.20;;;;;;;10.69;100.00;97197.25;5031007;27;102759;-61
2022/10/03 04:24:53;;;;;;;8.70;7.47;;;;;;;10.64;100.00;97197.94;5031065;28;101733;-61
2022/10/03 04:27:44;;;;;;;9.00;7.17;;;;;;;10.63;100.00;97200.84;5031494;27;102250;-61
2022/10/03 04:30:16;;;;;;;9.10;7.77;;;;;;;10.66;100.00;97195.03;5030802;28;103172;-61
2022/10/03 04:33:20;;;;;;;9.87;7.27;;;;;;;10.66;100.00;97189.72;5031427;27;101772;-61
2022/10/03 04:36:16;;;;;;;11.47;7.70;;;;;;;10.63;100.00;97195.53;5031423;28;102374;-61
2022/10/03 04:38:55;;;;;;;9.33;7.50;;;;;;;10.62;100.00;97193.88;5033596;28;102574;-61
2022/10/03 04:41:30;;;;;;;7.37;6.67;;;;;;;10.63;100.00;97192.84;5031336;28;103004;-61
2022/10/03 04:44:10;;;;;;;9.93;7.10;;;;;;;10.65;100.00;97190.78;5030542;28;101975;-61
2022/10/03 04:46:45;;;;;;;10.27;7.50;;;;;;;10.66;100.00;97195.03;5030178;28;101865;-61
2022/10/03 04:49:18;;;;;;;8.43;5.90;;;;;;;10.61;100.00;97192.25;5031139;27;102300;-61
2022/10/03 04:51:57;;;;;;;9.47;5.20;;;;;;;10.66;100.00;97184.41;5030046;28;102825;-61
2022/10/03 04:54:37;;;;;;;9.83;5.77;;;;;;;10.64;100.00;97189.16;5031037;27;101767;-61
2022/10/03 04:57:11;;;;;;;6.30;5.23;;;;;;;10.64;100.00;97186.50;5029487;28;104757;-62
2022/10/03 04:59:48;;;;;;;6.17;4.97;;;;;;;10.64;100.00;97191.81;5028800;28;105327;-61
2022/10/03 05:02:32;;;;;;;8.23;4.83;;;;;;;10.67;100.00;97186.00;5066783;27;101912;-61
2022/10/03 05:05:15;;;;;;;8.50;4.10;;;;;;;10.67;100.00;97186.00;5062513;27;106095;-61
2022/10/03 05:07:49;;;;;;;4.63;3.90;;;;;;;10.69;100.00;97178.63;5028980;28;101959;-61
2022/10/03 05:10:45;;;;;;;6.73;3.70;;;;;;;10.68;100.00;97177.81;5029207;28;105142;-61
2022/10/03 05:13:18;;;;;;;8.80;4.90;;;;;;;10.72;100.00;97180.81;5030169;28;102617;-61
2022/10/03 05:15:55;;;;;;;7.23;4.50;;;;;;;10.71;100.00;97184.53;5030733;28;101715;-61
2022/10/03 05:18:33;;;;;;;4.90;4.40;;;;;;;10.72;100.00;97188.78;5029188;28;106437;-61
2022/10/03 05:21:08;;;;;;;7.27;5.10;;;;;;;10.72;100.00;97194.94;5027891;27;105904;-61
2022/10/03 05:23:46;;;;;;;5.70;5.20;;;;;;;10.70;100.00;97202.34;5029035;28;101920;-61
2022/10/03 05:26:26;;;;;;;6.63;5.40;;;;;;;10.69;100.00;97207.91;5031961;28;103620;-61
2022/10/03 05:29:02;;;;;;;8.87;6.53;;;;;;;10.63;100.00;97206.16;5029094;28;101928;-61
2022/10/03 05:31:43;;;;;;;9.07;6.83;;;;;;;10.67;100.00;97209.94;5028903;28;105317;-61
2022/10/03 05:34:21;;;;;;;7.23;6.00;;;;;;;10.61;100.00;97213.53;5028138;28;106040;-61
2022/10/03 05:37:03;;;;;;;9.97;6.17;;;;;;;10.58;100.00;97211.34;5028649;28;102516;-61
2022/10/03 05:39:41;;;;;;;7.23;6.17;;;;;;;10.61;100.00;97219.69;5028942;28;104932;-61
2022/10/03 05:42:32;;;;;;;8.07;5.90;;;;;;;10.61;100.00;97219.69;5028475;28;105147;-61
2022/10/03 05:45:05;;;;;;;7.97;6.87;;;;;;;10.56;100.00;97226.72;5029066;28;101890;-61
2022/10/03 05:47:47;;;;;;;7.83;6.70;;;;;;;10.58;100.00;97232.63;5028367;28;105559;-61
2022/10/03 05:50:56;;;;;;;7.60;6.80;;;;;;;10.60;100.00;97227.88;5032999;27;105000;-61
2022/10/03 05:53:53;;;;;;;11.90;8.00;;;;;;;10.60;100.00;97223.38;5029089;28;105198;-61
2022/10/03 05:56:46;;;;;;;11.40;7.83;;;;;;;10.55;100.00;97231.25;5029812;27;102629;-61
2022/10/03 05:59:29;;;;;;;8.67;7.57;;;;;;;10.58;100.00;97240.63;5030596;27;101683;-61
2022/10/03 06:02:33;;;;;;;14.20;9.20;;;;;;;10.59;100.00;97239.56;5030563;28;102803;-61
2022/10/03 06:05:13;;;;;;;10.50;8.63;;;;;;;10.60;100.00;97243.84;5017509;28;105448;-61
2022/10/03 06:08:04;;;;;;;10.67;7.50;;;;;;;10.65;100.00;97250.09;5028598;28;101863;-61
2022/10/03 06:10:46;;;;;;;9.80;8.20;;;;;;;10.66;100.00;97245.59;5028577;28;104970;-61
2022/10/03 06:13:22;;;;;;;8.30;7.50;;;;;;;10.66;100.00;97251.72;5028038;28;105243;-61
2022/10/03 06:15:58;;;;;;;9.10;8.10;;;;;;;10.67;100.00;97249.84;5032076;28;101842;-61
2022/10/03 06:18:57;;;;;;;9.40;8.50;;;;;;;10.69;100.00;97255.78;5027775;28;104382;-60
2022/10/03 06:22:00;;;;;;;12.73;8.40;;;;;;;10.75;100.00;97252.19;5028509;28;101830;-61
2022/10/03 06:25:09;;;;;;;10.50;8.00;;;;;;;10.81;100.00;97254.75;5028495;28;105517;-61
2022/10/03 06:28:25;;;;;;;11.57;8.00;;;;;;;10.85;100.00;97255.09;5029245;28;102814;-61
2022/10/03 06:31:41;;;;;;;8.57;7.67;;;;;;;10.82;100.00;97256.38;5028561;28;101920;-60
2022/10/03 06:34:27;;;;;;;10.57;8.43;;;;;;;10.88;100.00;97263.44;4953285;28;105260;-60
2022/10/03 06:37:41;;;;;;;10.17;8.80;;;;;;;10.92;100.00;97263.78;5031120;28;105002;-60
2022/10/03 06:40:59;;;;;;;10.50;9.40;;;;;;;10.96;100.00;97267.59;5036576;28;102087;-60
2022/10/03 06:44:04;;;;;;;11.77;9.93;;;;;;;11.03;100.00;97268.28;5026077;28;105572;-60
2022/10/03 06:46:54;;;;;;;8.87;7.90;;;;;;;10.92;100.00;97269.09;5015448;28;101804;-60
2022/10/03 06:49:33;;;;;;;12.07;7.90;;;;;;;10.94;100.00;97272.31;5032997;27;102514;-61
2022/10/03 06:52:27;;;;;;;7.37;6.60;;;;;;;10.93;100.00;97271.53;5032436;28;102688;-60
2022/10/03 06:55:21;;;;;;;7.00;6.37;;;;;;;10.93;100.00;97265.38;5031486;28;101978;-60
2022/10/03 06:58:33;;;;;;;9.53;7.30;;;;;;;11.01;100.00;97273.84;5031520;28;103918;-61
2022/10/03 07:01:24;;;;;;;8.17;7.07;;;;;;;11.12;100.00;97272.22;5032331;28;103105;-61
2022/10/03 07:04:11;;;;;;;8.07;6.90;;;;;;;11.16;100.00;97273.38;5031146;28;102025;-60
2022/10/03 07:07:17;;;;;;;7.80;6.67;;;;;;;11.27;100.00;97272.53;5035697;28;102492;-61
2022/10/03 07:10:13;;;;;;;10.23;8.03;;;;;;;11.37;100.00;97272.78;5033038;28;101926;-61
2022/10/03 07:13:05;;;;;;;8.43;7.70;;;;;;;11.44;100.00;97279.59;5032599;28;102314;-61
2022/10/03 07:16:08;;;;;;;7.90;7.10;;;;;;;11.44;100.00;97278.81;5032345;28;102834;-61
2022/10/03 07:19:06;;;;;;;8.73;7.30;;;;;;;11.49;100.00;97281.53;5030691;28;101916;-60
2022/10/03 07:22:03;;;;;;;10.17;6.87;;;;;;;11.50;100.00;97280.53;5015062;27;102918;-61
2022/10/03 07:25:08;;;;;;;9.73;6.70;;;;;;;11.51;100.00;97284.81;5032004;28;102778;-61
2022/10/03 07:28:28;;;;;;;8.47;6.90;;;;;;;11.56;100.00;97292.91;5032473;28;101889;-61
2022/10/03 07:31:19;;;;;;;8.40;6.73;;;;;;;11.71;100.00;97288.72;4980209;27;102731;-61
2022/10/03 07:34:19;;;;;;;6.60;6.00;;;;;;;11.71;100.00;97291.38;5033761;28;105926;-61
2022/10/03 07:40:42;;;;;;;9.23;6.70;;;;;;;11.83;100.00;97300.16;5030090;28;105436;-61
2022/10/03 07:43:48;;;;;;;7.10;6.03;;;;;;;12.06;100.00;97294.78;5013802;28;101918;-61
2022/10/03 07:46:45;;;;;;;8.40;6.43;;;;;;;12.19;100.00;97301.66;5031539;28;102841;-61
2022/10/03 07:49:31;;;;;;;12.47;10.30;;;;;;;12.28;100.00;97298.41;5029874;28;104204;-61
2022/10/03 07:52:28;;;;;;;9.07;6.70;;;;;;;12.28;100.00;97302.91;5031078;28;101704;-61
2022/10/03 07:55:16;;;;;;;8.60;6.23;;;;;;;12.42;100.00;97298.91;5030559;28;105523;-61
2022/10/03 07:58:29;;;;;;;7.87;6.10;;;;;;;12.55;100.00;97304.78;5030040;28;105872;-61
2022/10/03 08:01:23;;;;;;;6.57;5.67;;;;;;;12.52;100.00;97299.06;5033962;28;101822;-61
2022/10/03 08:04:39;;;;;;;8.03;5.10;;;;;;;12.52;100.00;97302.56;5031365;28;102872;-60
2022/10/03 08:07:36;;;;;;;8.37;5.27;;;;;;;12.61;100.00;97308.31;4949636;28;102150;-61
2022/10/03 08:10:23;;;;;;;5.20;4.37;;;;;;;12.55;100.00;97302.09;4933536;28;103633;-60
2022/10/03 08:13:05;;;;;;;8.33;5.67;;;;;;;12.54;100.00;97302.34;5007325;28;105432;-60
2022/10/03 08:15:48;;;;;;;6.53;5.20;;;;;;;12.40;100.00;97296.50;5031816;28;101671;-60
2022/10/03 08:19:03;;;;;;;7.33;4.93;;;;;;;12.50;100.00;97301.19;5031797;27;102326;-61
2022/10/03 08:21:57;;;;;;;7.90;5.20;;;;;;;12.71;100.00;97301.28;4982467;28;105162;-61
2022/10/03 08:24:49;;;;;;;6.67;4.90;;;;;;;12.58;100.00;97293.59;5031483;28;101895;-62
2022/10/03 08:27:58;;;;;;;5.57;4.53;;;;;;;12.94;100.00;97301.16;5034427;27;102515;-62
2022/10/03 08:30:38;;;;;;;5.57;4.40;;;;;;;13.15;100.00;97299.63;5031504;27;101777;-62
2022/10/03 08:33:35;;;;;;;7.40;6.43;;;;;;;13.07;100.00;97294.69;5031350;27;102801;-62
2022/10/03 08:36:46;;;;;;;7.53;4.27;;;;;;;13.13;100.00;97291.06;5030961;27;102567;-62
2022/10/03 08:39:27;;;;;;;5.03;3.43;;;;;;;13.27;100.00;97297.66;5031465;28;101876;-62
2022/10/03 08:42:33;;;;;;;7.13;4.00;;;;;;;13.52;100.00;97293.50;5031433;28;102332;-62
2022/10/03 08:45:24;;;;;;;7.00;3.90;;;;;;;13.39;100.00;97296.53;5030455;28;102648;-62
2022/10/03 08:48:44;;;;;;;7.10;3.60;;;;;;;13.35;100.00;97295.38;5029423;28;101976;-62
2022/10/03 08:51:46;;;;;;;6.37;3.60;;;;;;;13.17;100.00;97303.69;5031097;27;102221;-62
2022/10/03 08:54:46;;;;;;;7.90;4.20;;;;;;;13.01;100.00;97298.34;5034154;27;102571;-62
2022/10/03 08:57:46;;;;;;;5.97;4.43;;;;;;;12.89;100.00;97303.75;5028998;27;103570;-62
2022/10/03 09:00:20;;;;;;;10.27;5.10;;;;;;;12.95;100.00;97302.78;5028933;28;105375;-62
2022/10/03 09:03:55;;;;;;;8.73;3.97;;;;;;;13.14;100.00;97303.38;5030917;28;101707;-62
2022/10/03 09:07:01;;;;;;;6.93;3.17;;;;;;;13.31;100.00;97304.94;5030950;28;102412;-62
2022/10/03 09:10:01;;;;;;;6.83;3.40;;;;;;;13.34;100.00;97292.97;4951677;28;105676;-62
2022/10/03 09:12:52;;;;;;;7.00;3.30;;;;;;;13.56;100.00;97299.16;4949180;28;102009;-62
2022/10/03 09:15:49;;;;;;;3.90;3.50;;;;;;;14.08;100.00;97295.84;4969127;28;102383;-62
2022/10/03 09:18:41;;;;;;;6.23;3.53;;;;;;;14.22;100.00;97291.72;4946722;28;104261;-62
2022/10/03 09:21:45;;;;;;;8.17;3.00;;;;;;;14.23;100.00;97298.69;4968878;28;102397;-62
2022/10/03 09:24:39;;;;;;;5.73;3.37;;;;;;;14.39;100.00;97289.75;4967496;28;103214;-62
2022/10/03 09:27:26;;;;;;;5.37;3.27;;;;;;;14.34;100.00;97286.25;4909466;28;102022;-61
2022/10/03 09:30:16;;;;;;;6.37;5.00;;;;;;;14.60;100.00;97296.16;4893501;28;105451;-60
2022/10/03 09:33:28;;;;;;;6.73;3.20;;;;;;;14.71;100.00;97287.16;4893137;28;105435;-60
2022/10/03 09:36:15;;;;;;;4.93;2.70;;;;;;;14.67;100.00;97288.72;4893539;28;102146;-61
2022/10/03 09:39:17;;;;;;;6.30;2.63;;;;;;;14.52;100.00;97289.38;4893557;28;103971;-61
2022/10/03 09:42:20;;;;;;;4.80;2.60;;;;;;;13.99;100.00;97291.16;4880419;28;104266;-61
2022/10/03 09:45:13;;;;;;;5.87;3.03;;;;;;;13.88;100.00;97289.41;4952089;28;102012;-60
2022/10/03 09:48:21;;;;;;;6.30;3.23;;;;;;;13.57;100.00;97290.88;4932769;28;102663;-60
2022/10/03 09:51:08;;;;;;;6.00;3.70;;;;;;;13.46;100.00;97289.13;4916499;28;101878;-60
2022/10/03 09:54:11;;;;;;;6.07;3.47;;;;;;;13.79;100.00;97290.94;4948190;28;105221;-61
2022/10/03 09:57:15;;;;;;;6.60;3.10;;;;;;;14.18;100.00;97284.44;4947213;28;103270;-60
2022/10/03 10:00:09;;;;;;;6.57;2.83;;;;;;;14.91;100.00;97288.13;4948100;28;101929;-60
2022/10/03 10:03:44;;;;;;;6.67;2.57;;;;;;;14.71;100.00;97287.16;4931766;28;105182;-60
2022/10/03 10:06:42;;;;;;;5.27;2.57;;;;;;;14.58;100.00;97279.50;5029136;28;102588;-60
2022/10/03 10:09:46;;;;;;;7.50;2.80;;;;;;;14.80;100.00;97288.28;5032459;28;101716;-60
2022/10/03 10:12:40;;;;;;;4.87;2.70;;;;;;;14.57;100.00;97284.06;5034828;28;105379;-60
2022/10/03 10:15:50;;;;;;;4.57;2.43;;;;;;;14.26;100.00;97284.00;5033547;28;102119;-60
2022/10/03 10:19:01;;;;;;;3.97;2.57;;;;;;;14.26;100.00;97276.78;5033515;28;102545;-59
2022/10/03 10:22:03;;;;;;;5.60;2.77;;;;;;;14.19;100.00;97268.16;5030563;28;103339;-59
2022/10/03 10:25:02;;;;;;;6.97;3.00;;;;;;;14.27;100.00;97272.22;5030407;28;102040;-59
2022/10/03 10:28:01;;;;;;;9.43;3.17;;;;;;;14.18;100.00;97268.38;5020372;27;102395;-59
2022/10/03 10:31:00;;;;;;;5.37;2.67;;;;;;;13.99;100.00;97265.22;5032805;27;102787;-59
2022/10/03 10:34:21;;;;;;;5.00;2.43;;;;;;;13.87;100.00;97266.41;4996057;27;103547;-59
2022/10/03 10:37:36;;;;;;;4.03;2.60;;;;;;;13.75;100.00;97260.38;5029848;28;102506;-59
2022/10/03 10:40:33;;;;;;;8.23;2.67;;;;;;;13.88;100.00;97262.69;5032558;28;103351;-59
2022/10/03 10:43:57;;;;;;;6.77;2.93;;;;;;;13.86;100.00;97262.13;5009634;27;102925;-59
2022/10/03 10:47:05;;;;;;;7.50;3.20;;;;;;;13.98;100.00;97260.94;5000280;28;103866;-59
2022/10/03 10:50:07;;;;;;;4.53;2.60;;;;;;;14.10;100.00;97261.59;5032808;27;101740;-59
2022/10/03 10:52:50;;;;;;;4.30;2.43;;;;;;;14.21;100.00;97258.00;5032655;28;102842;-60
2022/10/03 10:55:55;;;;;;;3.00;2.33;;;;;;;14.68;100.00;97260.88;5032139;28;102875;-60
2022/10/03 10:58:56;;;;;;;4.77;2.60;;;;;;;15.17;100.00;97262.31;5032592;28;102211;-60
2022/10/03 11:01:59;;;;;;;3.60;2.00;;;;;;;14.85;100.00;97258.88;5031395;28;107075;-60
2022/10/03 11:05:05;;;;;;;4.17;2.10;;;;;;;14.61;100.00;97257.59;5030622;28;106452;-61
2022/10/03 11:08:23;;;;;;;6.73;2.73;;;;;;;14.97;100.00;97251.47;4994287;28;101967;-61
2022/10/03 11:11:13;;;;;;;4.80;2.43;;;;;;;15.59;100.00;97250.53;5031772;27;102623;-61
2022/10/03 11:14:18;;;;;;;6.87;3.07;;;;;;;15.64;100.00;97245.19;5032541;28;102284;-62
2022/10/03 11:17:32;;;;;;;4.13;2.70;;;;;;;15.19;100.00;97250.28;5031037;28;102879;-61
2022/10/03 11:20:26;;;;;;;4.23;2.60;;;;;;;15.22;100.00;97257.00;5031663;27;102575;-61
2022/10/03 11:23:37;;;;;;;4.67;2.77;;;;;;;15.23;100.00;97255.94;5030660;28;101991;-61
2022/10/03 11:26:46;;;;;;;4.33;2.40;;;;;;;15.51;100.00;97256.41;5010453;28;105222;-61
2022/10/03 11:30:03;;;;;;;3.60;2.40;;;;;;;15.30;100.00;97251.13;5031487;28;102971;-61
2022/10/03 11:32:55;;;;;;;4.43;2.90;;;;;;;15.32;100.00;97246.34;5030751;28;101737;-61
2022/10/03 11:36:00;;;;;;;3.73;2.67;;;;;;;15.48;100.00;97248.09;5035199;28;101761;-61
2022/10/03 11:38:31;;;;;;;4.17;2.67;;;;;;;15.80;100.00;97240.72;5032316;28;101866;-61
2022/10/03 11:41:09;;;;;;;4.77;2.27;;;;;;;15.32;100.00;97243.66;5032058;28;102491;-61
2022/10/03 11:43:53;;;;;;;3.93;2.33;;;;;;;15.48;100.00;97248.09;5031526;28;102700;-61
2022/10/03 11:46:31;;;;;;;5.13;2.10;;;;;;;14.99;100.00;97242.09;5030507;28;101762;-61
2022/10/03 11:49:05;;;;;;;5.53;2.00;;;;;;;15.19;100.00;97244.09;5032204;27;102373;-61
2022/10/03 11:51:44;;;;;;;3.83;2.20;;;;;;;15.47;100.00;97247.25;5031270;28;103227;-62
2022/10/03 11:54:24;;;;;;;4.67;2.47;;;;;;;15.74;100.00;97236.38;5030309;28;101970;-62
2022/10/03 11:57:01;;;;;;;2.83;2.10;;;;;;;16.12;100.00;97223.38;5032899;28;105234;-62
2022/10/03 11:59:52;;;;;;;6.27;2.30;;;;;;;17.03;100.00;97229.66;5030330;28;101843;-62
2022/10/03 12:02:39;;;;;;;4.70;2.10;;;;;;;15.77;100.00;97235.88;5031949;27;102194;-62
2022/10/03 12:05:15;;;;;;;5.90;2.40;;;;;;;15.09;100.00;97233.34;5031159;27;102808;-62
2022/10/03 12:10:49;;;;;;;3.63;2.47;;;;;;;14.55;100.00;97227.28;5031653;28;102867;-62
2022/10/03 12:13:22;;;;;;;3.70;2.40;;;;;;;14.61;100.00;97230.84;5029450;28;105354;-62
2022/10/03 12:15:53;;;;;;;3.77;2.70;;;;;;;15.51;100.00;97232.28;5031702;28;102119;-62
2022/10/03 12:18:30;;;;;;;4.57;2.97;;;;;;;15.95;100.00;97228.16;5030108;28;105729;-62
2022/10/03 12:21:06;;;;;;;6.23;2.60;;;;;;;16.15;100.00;97220.19;5034200;28;103171;-62
2022/10/03 12:23:51;;;;;;;3.33;2.20;;;;;;;16.61;100.00;97227.25;5029819;28;103743;-62
2022/10/03 12:26:30;;;;;;;2.83;1.80;;;;;;;16.67;100.00;97220.00;5030970;27;102579;-62
2022/10/03 12:28:59;;;;;;;5.27;2.13;;;;;;;17.00;100.00;97219.47;5030010;28;102225;-62
2022/10/03 12:31:34;;;;;;;3.90;1.90;;;;;;;16.88;100.00;97222.41;5028450;27;103696;-61
2022/10/03 12:34:20;;;;;;;3.23;2.07;;;;;;;16.83;100.00;97213.53;5030843;28;102692;-61
2022/10/03 12:36:53;;;;;;;4.43;2.33;;;;;;;16.23;100.00;97216.16;5031228;28;102168;-61
2022/10/03 12:39:34;;;;;;;3.30;2.00;;;;;;;16.21;100.00;97220.97;5031377;28;102415;-61
2022/10/03 12:42:25;;;;;;;3.93;2.60;;;;;;;16.50;100.00;97219.44;5030694;28;103086;-61
2022/10/03 12:44:58;;;;;;;2.63;2.30;;;;;;;17.06;100.00;97210.31;5034704;27;101703;-61
2022/10/03 12:47:35;;;;;;;3.70;2.20;;;;;;;16.31;100.00;97215.63;5028699;28;103800;-61
2022/10/03 12:50:11;;;;;;;5.33;2.40;;;;;;;15.90;100.00;97217.41;5029493;28;101900;-61
2022/10/03 12:52:47;;;;;;;3.03;2.20;;;;;;;15.83;100.00;97205.31;5029624;28;105292;-61
2022/10/03 12:55:27;;;;;;;4.57;2.33;;;;;;;15.66;100.00;97207.41;5028737;28;105140;-61
2022/10/03 12:58:08;;;;;;;4.17;2.30;;;;;;;16.06;100.00;97202.16;5029353;28;102067;-61
2022/10/03 13:00:43;;;;;;;5.33;2.30;;;;;;;15.75;100.00;97205.84;5031124;28;102405;-61
2022/10/03 13:03:21;;;;;;;4.43;2.20;;;;;;;16.00;100.00;97217.44;5028790;28;105621;-61
2022/10/03 13:06:29;;;;;;;3.00;2.00;;;;;;;15.68;100.00;97208.75;5030886;28;102055;-61
2022/10/03 13:09:15;;;;;;;3.87;2.10;;;;;;;16.19;100.00;97207.81;5033150;27;103021;-61
2022/10/03 13:11:54;;;;;;;4.03;2.33;;;;;;;16.14;100.00;97207.81;5029098;28;101965;-61
2022/10/03 13:14:42;;;;;;;3.00;1.90;;;;;;;16.39;100.00;97210.59;5029337;28;105038;-61
2022/10/03 13:17:19;;;;;;;3.53;2.17;;;;;;;16.03;100.00;97216.13;5028501;28;105497;-61